Time;durP1;ratioP1;P1;durP2;ratioP2;P2;SDS_P1;SDS_P2;PMS_P1;PMS_P2;Temp;Humidity;BMP_temperature;BMP_pressure;BME280_temperature;BME280_humidity;BME280_pressure;Samples;Min_cycle;Max_cycle;Signal;HPM_P1;HPM_P2
2023/04/03 00:02:01;;;;;;;1.52;0.80;;;;;;;;;;4897988;29;20043;-77
2023/04/03 00:07:32;;;;;;;4.78;0.75;;;;;;;;;;5002532;28;20037;-77
2023/04/03 00:10:01;;;;;;;1.52;0.52;;;;;;;;;;4997075;28;20037;-77
2023/04/03 00:12:39;;;;;;;1.48;1.13;;;;;;;;;;5012771;28;20048;-77
2023/04/03 00:15:11;;;;;;;3.38;0.82;;;;;;;;;;4996691;28;20034;-78
2023/04/03 00:17:37;;;;;;;;;;;;;;;;;;5013022;28;20030;-78
2023/04/03 00:20:10;;;;;;;1.40;0.60;;;;;;;;;;5007350;28;19983;-78
2023/04/03 00:22:36;;;;;;;1.55;0.52;;;;;;;;;;5011939;28;20036;-77
2023/04/03 00:25:02;;;;;;;5.00;0.60;;;;;;;;;;5013013;28;20029;-79
2023/04/03 00:27:31;;;;;;;4.43;0.85;;;;;;;;;;5010428;28;20452;-77
2023/04/03 00:30:03;;;;;;;3.60;0.55;;;;;;;;;;5014368;28;20461;-79
2023/04/03 00:32:37;;;;;;;2.55;0.82;;;;;;;;;;5009386;28;20172;-76
2023/04/03 00:35:03;;;;;;;1.60;0.70;;;;;;;;;;5000085;28;20046;-76
2023/04/03 00:37:32;;;;;;;1.60;0.52;;;;;;;;;;5006962;28;20385;-76
2023/04/03 00:40:04;;;;;;;3.92;0.80;;;;;;;;;;5013736;28;20055;-77
2023/04/03 00:42:34;;;;;;;2.63;0.77;;;;;;;;;;5005696;28;20038;-76
2023/04/03 00:45:26;;;;;;;2.80;0.73;;;;;;;;;;5012694;28;20053;-77
2023/04/03 00:47:52;;;;;;;2.05;0.60;;;;;;;;;;4986650;28;20061;-78
2023/04/03 00:50:18;;;;;;;2.78;0.77;;;;;;;;;;5000480;28;20111;-76
2023/04/03 00:52:46;;;;;;;2.40;0.50;;;;;;;;;;5009615;28;20108;-76
2023/04/03 00:55:27;;;;;;;2.83;0.70;;;;;;;;;;5013850;28;20026;-77
2023/04/03 00:58:14;;;;;;;1.75;0.65;;;;;;;;;;5009566;28;20034;-76
2023/04/03 01:04:31;;;;;;;;;;;;;;;;;;;;;
2023/04/03 01:10:19;;;;;;;2.63;0.65;;;;;;;;;;4930927;28;20039;-78
2023/04/03 01:12:50;;;;;;;2.22;0.60;;;;;;;;;;4996798;28;20038;-77
2023/04/03 01:15:20;;;;;;;3.92;0.90;;;;;;;;;;5009043;28;20022;-76
2023/04/03 01:17:51;;;;;;;1.83;0.70;;;;;;;;;;5010466;28;20105;-77
2023/04/03 01:20:24;;;;;;;0.70;0.50;;;;;;;;;;5008534;28;20095;-77
2023/04/03 01:22:57;;;;;;;5.15;0.77;;;;;;;;;;5013358;28;20386;-76
2023/04/03 01:25:23;;;;;;;3.03;0.60;;;;;;;;;;5022028;28;20481;-77
2023/04/03 01:27:49;;;;;;;2.30;0.65;;;;;;;;;;5002225;28;20045;-76
2023/04/03 01:30:17;;;;;;;2.60;0.70;;;;;;;;;;5003793;28;20359;-79
2023/04/03 01:32:43;;;;;;;1.85;0.50;;;;;;;;;;5001017;28;20569;-78
2023/04/03 01:35:10;;;;;;;1.42;0.70;;;;;;;;;;5011086;28;20036;-77
2023/04/03 01:37:36;;;;;;;2.38;0.93;;;;;;;;;;5009056;28;20124;-76
2023/04/03 01:40:02;;;;;;;2.65;0.73;;;;;;;;;;5006304;28;20056;-77
2023/04/03 01:42:29;;;;;;;1.95;0.60;;;;;;;;;;4998310;28;20037;-76
2023/04/03 01:44:55;;;;;;;3.75;1.67;;;;;;;;;;4999421;28;20045;-77
2023/04/03 01:47:22;;;;;;;3.17;0.95;;;;;;;;;;5006452;28;20030;-76
2023/04/03 01:49:48;;;;;;;2.08;0.68;;;;;;;;;;5001686;28;20038;-76
2023/04/03 01:52:17;;;;;;;2.08;0.70;;;;;;;;;;5010821;28;20095;-76
2023/04/03 01:54:43;;;;;;;5.22;1.33;;;;;;;;;;4993487;28;20297;-76
2023/04/03 01:57:09;;;;;;;3.58;0.88;;;;;;;;;;5008471;28;20100;-77
2023/04/03 01:59:35;;;;;;;1.90;0.60;;;;;;;;;;5007797;28;20389;-75
2023/04/03 02:02:01;;;;;;;4.55;1.00;;;;;;;;;;4979337;28;20245;-77
2023/04/03 02:04:27;;;;;;;2.45;1.27;;;;;;;;;;5001217;28;20018;-76
2023/04/03 02:06:53;;;;;;;4.07;0.98;;;;;;;;;;4995947;28;20045;-77
2023/04/03 02:09:19;;;;;;;2.50;0.70;;;;;;;;;;5018321;28;20040;-77
2023/04/03 02:11:49;;;;;;;2.17;0.77;;;;;;;;;;5011884;28;20502;-76
2023/04/03 02:14:15;;;;;;;1.90;0.73;;;;;;;;;;4996141;28;20394;-78
2023/04/03 02:16:41;;;;;;;3.90;1.27;;;;;;;;;;5011577;28;20028;-76
2023/04/03 02:19:09;;;;;;;1.55;0.70;;;;;;;;;;5012200;28;20040;-76
2023/04/03 02:21:36;;;;;;;2.63;0.85;;;;;;;;;;5011528;28;20494;-75
2023/04/03 02:24:02;;;;;;;2.38;1.10;;;;;;;;;;5010910;28;20025;-76
2023/04/03 02:26:28;;;;;;;2.78;1.00;;;;;;;;;;5010421;28;20383;-75
2023/04/03 02:28:54;;;;;;;3.42;1.00;;;;;;;;;;4993169;28;20386;-75
2023/04/03 02:31:20;;;;;;;4.78;1.02;;;;;;;;;;5014475;28;20134;-76
2023/04/03 02:33:46;;;;;;;2.08;0.93;;;;;;;;;;5030471;28;20032;-75
2023/04/03 02:36:13;;;;;;;4.00;1.40;;;;;;;;;;4995549;28;20487;-77
2023/04/03 02:38:39;;;;;;;4.55;0.93;;;;;;;;;;5014795;28;20030;-75
2023/04/03 02:41:07;;;;;;;1.98;0.70;;;;;;;;;;5012865;28;20128;-78
2023/04/03 02:43:33;;;;;;;3.20;1.27;;;;;;;;;;5013490;28;20045;-75
2023/04/03 02:45:59;;;;;;;1.92;0.85;;;;;;;;;;5018890;28;20750;-76
2023/04/03 02:48:26;;;;;;;7.53;1.52;;;;;;;;;;5011612;28;20021;-76
2023/04/03 02:50:52;;;;;;;5.30;1.10;;;;;;;;;;5013586;28;20038;-76
2023/04/03 02:53:18;;;;;;;1.55;0.93;;;;;;;;;;5012956;28;20029;-76
2023/04/03 02:55:44;;;;;;;5.00;1.25;;;;;;;;;;5016011;28;20116;-76
2023/04/03 02:58:11;;;;;;;5.07;1.00;;;;;;;;;;5011925;28;20028;-79
2023/04/03 03:00:37;;;;;;;3.45;0.93;;;;;;;;;;5011257;28;20069;-76
2023/04/03 03:03:03;;;;;;;2.60;0.90;;;;;;;;;;4992090;28;20038;-77
2023/04/03 03:05:30;;;;;;;4.03;1.10;;;;;;;;;;4997266;28;20025;-77
2023/04/03 03:07:56;;;;;;;1.77;0.90;;;;;;;;;;5012572;28;20022;-78
2023/04/03 03:10:22;;;;;;;3.83;1.20;;;;;;;;;;5014913;28;20029;-77
2023/04/03 03:12:48;;;;;;;4.40;1.25;;;;;;;;;;5012699;28;20037;-77
2023/04/03 03:15:16;;;;;;;3.85;1.20;;;;;;;;;;5013936;28;20044;-76
2023/04/03 03:17:42;;;;;;;4.13;1.10;;;;;;;;;;4983007;28;20026;-77
2023/04/03 03:20:08;;;;;;;3.60;1.33;;;;;;;;;;5021244;28;20025;-78
2023/04/03 03:22:35;;;;;;;4.75;1.08;;;;;;;;;;5028820;28;20040;-76
2023/04/03 03:25:02;;;;;;;5.57;1.30;;;;;;;;;;5013105;28;20032;-76
2023/04/03 03:27:28;;;;;;;3.60;1.20;;;;;;;;;;5013898;28;20030;-76
2023/04/03 03:29:54;;;;;;;4.05;1.27;;;;;;;;;;5015120;28;20535;-76
2023/04/03 03:32:20;;;;;;;6.53;2.28;;;;;;;;;;4997520;28;20037;-76
2023/04/03 03:34:46;;;;;;;3.15;0.95;;;;;;;;;;5007595;28;20033;-76
2023/04/03 03:37:12;;;;;;;5.00;2.25;;;;;;;;;;5004956;28;20035;-76
2023/04/03 03:39:38;;;;;;;5.63;1.38;;;;;;;;;;5010822;28;20040;-76
2023/04/03 03:42:12;;;;;;;4.85;1.55;;;;;;;;;;5011736;28;20061;-77
2023/04/03 03:44:40;;;;;;;4.28;1.25;;;;;;;;;;4996693;28;20491;-76
2023/04/03 03:47:10;;;;;;;2.15;1.00;;;;;;;;;;5012208;28;20033;-77
2023/04/03 03:49:36;;;;;;;3.92;1.05;;;;;;;;;;5008623;28;20270;-77
2023/04/03 03:52:02;;;;;;;5.70;1.40;;;;;;;;;;4999952;28;20041;-77
2023/04/03 03:54:29;;;;;;;4.68;1.10;;;;;;;;;;5006303;28;20068;-77
2023/04/03 03:57:00;;;;;;;4.35;1.17;;;;;;;;;;5014181;28;20033;-77
2023/04/03 03:59:26;;;;;;;4.80;1.35;;;;;;;;;;4993198;28;20026;-77
2023/04/03 04:01:52;;;;;;;9.10;1.10;;;;;;;;;;5013753;28;20080;-77
2023/04/03 04:04:19;;;;;;;4.22;1.13;;;;;;;;;;5001371;28;20541;-76
2023/04/03 04:06:45;;;;;;;6.25;1.55;;;;;;;;;;5011805;28;20065;-78
2023/04/03 04:09:12;;;;;;;4.10;1.30;;;;;;;;;;5014195;28;20475;-78
2023/04/03 04:11:39;;;;;;;6.05;1.20;;;;;;;;;;5020664;28;20034;-77
2023/04/03 04:14:13;;;;;;;4.72;1.15;;;;;;;;;;5012741;28;20470;-77
2023/04/03 04:16:39;;;;;;;2.33;1.23;;;;;;;;;;5010561;28;20176;-77
2023/04/03 04:19:05;;;;;;;6.70;1.92;;;;;;;;;;5010656;28;20111;-77
2023/04/03 04:21:31;;;;;;;13.35;2.13;;;;;;;;;;5012835;28;20039;-76
2023/04/03 04:23:57;;;;;;;8.82;1.40;;;;;;;;;;5004025;28;20026;-77
2023/04/03 04:26:24;;;;;;;5.80;1.27;;;;;;;;;;5010206;28;20033;-78
2023/04/03 04:28:50;;;;;;;5.40;1.70;;;;;;;;;;5013229;28;20032;-78
2023/04/03 04:31:16;;;;;;;7.28;1.80;;;;;;;;;;5006092;28;20033;-76
2023/04/03 04:33:43;;;;;;;4.20;1.52;;;;;;;;;;5010222;28;20037;-76
2023/04/03 04:36:09;;;;;;;5.85;1.52;;;;;;;;;;4999785;28;20036;-77
2023/04/03 04:38:35;;;;;;;4.65;1.33;;;;;;;;;;5011498;28;20083;-76
2023/04/03 04:41:01;;;;;;;3.53;1.40;;;;;;;;;;5011520;28;20052;-76
2023/04/03 04:43:27;;;;;;;7.57;1.80;;;;;;;;;;5004602;28;20022;-76
2023/04/03 04:46:13;;;;;;;3.75;1.33;;;;;;;;;;4999473;28;20132;-77
2023/04/03 04:48:40;;;;;;;5.13;1.70;;;;;;;;;;5010520;28;20382;-75
2023/04/03 04:51:06;;;;;;;9.55;1.80;;;;;;;;;;5012165;28;20061;-77
2023/04/03 04:53:35;;;;;;;3.95;1.40;;;;;;;;;;5003974;28;20034;-76
2023/04/03 04:56:01;;;;;;;10.30;2.63;;;;;;;;;;5002004;28;20056;-76
2023/04/03 04:58:30;;;;;;;8.68;2.13;;;;;;;;;;5007810;28;20037;-76
2023/04/03 05:01:14;;;;;;;6.57;1.63;;;;;;;;;;5012357;28;20075;-76
2023/04/03 05:03:43;;;;;;;3.15;1.23;;;;;;;;;;5011932;28;20029;-76
2023/04/03 05:06:18;;;;;;;8.80;2.22;;;;;;;;;;5009476;28;20041;-77
2023/04/03 05:08:47;;;;;;;3.70;1.33;;;;;;;;;;4993502;28;21411;-78
2023/04/03 05:11:13;;;;;;;8.00;1.90;;;;;;;;;;5006196;28;20140;-80
2023/04/03 05:13:39;;;;;;;4.50;1.65;;;;;;;;;;5005756;28;20033;-79
2023/04/03 05:16:06;;;;;;;7.15;2.15;;;;;;;;;;5006320;28;20052;-75
2023/04/03 05:18:32;;;;;;;6.85;1.80;;;;;;;;;;5006423;28;20022;-75
2023/04/03 05:21:04;;;;;;;13.23;2.22;;;;;;;;;;5004297;28;20025;-77
2023/04/03 05:23:30;;;;;;;5.82;2.63;;;;;;;;;;5001148;28;20482;-76
2023/04/03 05:25:56;;;;;;;12.77;2.47;;;;;;;;;;5007404;28;20072;-77
2023/04/03 05:28:24;;;;;;;5.95;1.95;;;;;;;;;;5003862;28;20686;-78
2023/04/03 05:30:56;;;;;;;6.93;2.03;;;;;;;;;;5006757;28;20029;-77
2023/04/03 05:33:22;;;;;;;;;;;;;;;;;;5009382;28;20470;-78
2023/04/03 05:35:49;;;;;;;11.10;2.75;;;;;;;;;;4995201;28;19913;-76
2023/04/03 05:38:15;;;;;;;12.82;5.30;;;;;;;;;;4998697;28;20378;-76
2023/04/03 05:41:12;;;;;;;7.25;1.80;;;;;;;;;;5003732;28;20071;-76
2023/04/03 05:46:49;;;;;;;7.45;1.98;;;;;;;;;;4909309;29;20191;-76
2023/04/03 05:49:21;;;;;;;9.27;2.17;;;;;;;;;;5003155;28;20030;-77
2023/04/03 05:51:47;;;;;;;8.13;2.10;;;;;;;;;;4995952;28;20379;-78
2023/04/03 05:54:16;;;;;;;7.20;2.60;;;;;;;;;;5004439;28;20644;-79
2023/04/03 05:56:42;;;;;;;4.68;1.73;;;;;;;;;;5005665;28;20083;-76
2023/04/03 05:59:09;;;;;;;8.73;1.95;;;;;;;;;;4990100;28;20127;-77
2023/04/03 06:01:35;;;;;;;3.10;2.00;;;;;;;;;;5005239;28;20040;-76
2023/04/03 06:04:01;;;;;;;5.32;2.00;;;;;;;;;;5008452;28;20029;-77
2023/04/03 06:06:43;;;;;;;4.75;2.08;;;;;;;;;;4996245;28;20025;-75
2023/04/03 06:09:09;;;;;;;6.65;1.60;;;;;;;;;;5013828;28;20087;-78
2023/04/03 06:11:35;;;;;;;9.32;2.03;;;;;;;;;;5014971;28;20068;-77
2023/04/03 06:14:02;;;;;;;8.02;1.90;;;;;;;;;;4994320;28;20029;-77
2023/04/03 06:16:29;;;;;;;5.35;1.70;;;;;;;;;;5007091;28;20530;-77
2023/04/03 06:18:55;;;;;;;5.97;2.05;;;;;;;;;;5013959;28;20026;-75
2023/04/03 06:21:22;;;;;;;5.55;2.08;;;;;;;;;;5014410;28;20037;-75
2023/04/03 06:23:48;;;;;;;6.05;2.00;;;;;;;;;;5012703;28;20047;-76
2023/04/03 06:26:14;;;;;;;10.45;1.85;;;;;;;;;;4983169;28;20038;-75
2023/04/03 06:28:40;;;;;;;9.50;1.77;;;;;;;;;;4994242;28;20504;-76
2023/04/03 06:31:06;;;;;;;7.28;2.20;;;;;;;;;;4994636;28;20048;-78
2023/04/03 06:33:32;;;;;;;4.57;1.38;;;;;;;;;;5016361;28;20596;-76
2023/04/03 06:35:59;;;;;;;5.50;2.35;;;;;;;;;;4996917;28;20029;-76
2023/04/03 06:38:25;;;;;;;10.52;2.83;;;;;;;;;;5007982;28;20033;-76
2023/04/03 06:40:52;;;;;;;6.50;1.92;;;;;;;;;;5006564;28;20091;-76
2023/04/03 06:43:18;;;;;;;8.80;1.98;;;;;;;;;;5006413;28;20076;-79
2023/04/03 06:45:44;;;;;;;5.50;2.05;;;;;;;;;;5008619;28;20126;-77
2023/04/03 06:48:11;;;;;;;6.82;2.05;;;;;;;;;;4982994;28;20041;-78
2023/04/03 06:50:37;;;;;;;7.22;1.55;;;;;;;;;;4994679;28;20037;-79
2023/04/03 06:53:03;;;;;;;3.45;1.70;;;;;;;;;;5008773;28;20131;-81
2023/04/03 06:55:29;;;;;;;5.05;1.95;;;;;;;;;;5027080;28;20022;-79
2023/04/03 06:57:55;;;;;;;8.05;2.17;;;;;;;;;;5008107;28;20029;-79
2023/04/03 07:00:22;;;;;;;6.50;2.55;;;;;;;;;;5007105;28;20033;-80
2023/04/03 07:02:48;;;;;;;6.32;1.80;;;;;;;;;;5006740;28;20030;-78
2023/04/03 07:05:14;;;;;;;7.68;2.42;;;;;;;;;;5008793;28;20367;-83
2023/04/03 07:07:41;;;;;;;10.30;1.75;;;;;;;;;;5006504;28;20171;-86
2023/04/03 07:10:07;;;;;;;8.02;1.48;;;;;;;;;;4991532;28;20030;-78
2023/04/03 07:12:33;;;;;;;5.95;1.67;;;;;;;;;;4996787;28;20034;-79
2023/04/03 07:14:59;;;;;;;4.93;1.80;;;;;;;;;;5014769;28;20151;-82
2023/04/03 07:17:26;;;;;;;6.03;2.45;;;;;;;;;;4986260;28;20025;-77
2023/04/03 07:19:52;;;;;;;6.82;2.00;;;;;;;;;;5010834;28;20053;-77
2023/04/03 07:22:19;;;;;;;6.68;2.05;;;;;;;;;;5019448;28;20051;-78
2023/04/03 07:24:46;;;;;;;4.80;1.60;;;;;;;;;;5011478;28;20029;-73
2023/04/03 07:27:12;;;;;;;4.95;1.70;;;;;;;;;;4998476;28;20481;-76
2023/04/03 07:29:39;;;;;;;6.47;1.60;;;;;;;;;;5005161;28;20174;-76
2023/04/03 07:32:06;;;;;;;11.05;5.18;;;;;;;;;;4998611;28;20478;-77
2023/04/03 07:34:32;;;;;;;5.35;1.67;;;;;;;;;;5005116;28;21062;-78
2023/04/03 07:37:00;;;;;;;5.57;2.58;;;;;;;;;;5001136;28;20452;-75
2023/04/03 07:39:27;;;;;;;7.50;2.83;;;;;;;;;;5007807;28;20030;-74
2023/04/03 07:41:55;;;;;;;7.35;2.60;;;;;;;;;;5011150;28;20053;-74
2023/04/03 07:44:21;;;;;;;6.38;1.83;;;;;;;;;;5003516;28;20112;-75
2023/04/03 07:46:48;;;;;;;4.43;2.42;;;;;;;;;;5008150;28;20402;-75
2023/04/03 07:49:14;;;;;;;5.30;2.13;;;;;;;;;;5007436;28;20031;-74
2023/04/03 07:51:40;;;;;;;4.00;1.50;;;;;;;;;;5003196;28;20045;-76
2023/04/03 07:54:06;;;;;;;4.68;1.40;;;;;;;;;;4998172;28;20030;-76
2023/04/03 07:56:33;;;;;;;3.95;1.20;;;;;;;;;;5008568;28;20098;-74
2023/04/03 07:58:59;;;;;;;4.05;1.52;;;;;;;;;;5009908;28;20429;-74
2023/04/03 08:01:25;;;;;;;3.80;1.33;;;;;;;;;;5006664;28;20056;-74
2023/04/03 08:03:52;;;;;;;2.95;1.15;;;;;;;;;;5010982;28;20541;-74
2023/04/03 08:06:18;;;;;;;7.78;1.60;;;;;;;;;;5013474;28;20041;-75
2023/04/03 08:08:44;;;;;;;5.43;1.70;;;;;;;;;;5013446;28;20025;-76
2023/04/03 08:11:11;;;;;;;4.88;1.40;;;;;;;;;;5014387;28;20029;-75
2023/04/03 08:13:37;;;;;;;4.68;1.25;;;;;;;;;;5002569;28;20466;-77
2023/04/03 08:16:11;;;;;;;5.28;1.38;;;;;;;;;;5009358;28;20044;-75
2023/04/03 08:18:37;;;;;;;3.28;1.45;;;;;;;;;;5002023;28;20428;-74
2023/04/03 08:21:06;;;;;;;4.30;1.65;;;;;;;;;;5011027;28;20102;-76
2023/04/03 08:23:32;;;;;;;4.65;1.58;;;;;;;;;;5011244;28;20033;-75
2023/04/03 08:25:58;;;;;;;3.15;1.42;;;;;;;;;;5007589;28;20128;-72
2023/04/03 08:28:24;;;;;;;7.28;3.35;;;;;;;;;;4995409;28;20144;-77
2023/04/03 08:30:50;;;;;;;7.07;2.90;;;;;;;;;;5008538;28;20034;-73
2023/04/03 08:33:16;;;;;;;5.28;2.08;;;;;;;;;;5004784;28;20025;-73
2023/04/03 08:35:43;;;;;;;5.75;1.42;;;;;;;;;;4978875;28;20493;-75
2023/04/03 08:38:10;;;;;;;3.40;0.90;;;;;;;;;;5025984;28;20496;-75
2023/04/03 08:40:36;;;;;;;4.20;1.45;;;;;;;;;;4989971;28;20113;-74
2023/04/03 08:43:18;;;;;;;4.22;1.13;;;;;;;;;;4985381;28;20032;-75
2023/04/03 08:45:44;;;;;;;3.45;1.42;;;;;;;;;;5024015;28;20083;-75
2023/04/03 08:48:20;;;;;;;2.78;1.27;;;;;;;;;;5004631;28;20026;-75
2023/04/03 08:50:49;;;;;;;3.85;1.60;;;;;;;;;;5001533;28;20327;-75
2023/04/03 08:53:16;;;;;;;3.72;1.20;;;;;;;;;;5009801;28;20028;-75
2023/04/03 08:55:47;;;;;;;2.40;1.02;;;;;;;;;;4998642;28;20663;-74
2023/04/03 08:58:19;;;;;;;3.30;1.17;;;;;;;;;;5030148;28;20105;-74
2023/04/03 09:00:48;;;;;;;4.32;1.65;;;;;;;;;;5006673;28;20569;-75
2023/04/03 09:03:16;;;;;;;3.60;1.02;;;;;;;;;;5025307;28;20030;-74
2023/04/03 09:05:43;;;;;;;5.00;1.15;;;;;;;;;;5008091;28;20022;-75
2023/04/03 09:08:25;;;;;;;3.53;1.02;;;;;;;;;;5017186;28;20025;-76
2023/04/03 09:10:58;;;;;;;5.38;1.45;;;;;;;;;;5009271;28;20474;-75
2023/04/03 09:13:27;;;;;;;3.03;0.88;;;;;;;;;;4999874;28;20106;-75
2023/04/03 09:15:54;;;;;;;2.60;1.00;;;;;;;;;;5010942;28;20039;-77
2023/04/03 09:18:22;;;;;;;5.80;1.20;;;;;;;;;;5011634;28;20026;-74
2023/04/03 09:21:02;;;;;;;2.90;0.70;;;;;;;;;;5012976;28;20033;-74
2023/04/03 09:23:38;;;;;;;1.45;0.90;;;;;;;;;;5010229;28;20065;-74
2023/04/03 09:26:07;;;;;;;1.88;0.85;;;;;;;;;;5002394;28;20060;-76
2023/04/03 09:28:36;;;;;;;3.90;1.42;;;;;;;;;;5001561;28;20045;-75
2023/04/03 09:31:02;;;;;;;2.70;1.17;;;;;;;;;;5006881;28;20025;-75
2023/04/03 09:33:30;;;;;;;1.67;0.95;;;;;;;;;;5011919;28;20029;-75
2023/04/03 09:35:57;;;;;;;3.05;1.15;;;;;;;;;;5002164;28;20026;-75
2023/04/03 09:38:23;;;;;;;4.45;1.30;;;;;;;;;;4993247;28;20048;-75
2023/04/03 09:41:02;;;;;;;3.75;1.10;;;;;;;;;;5011330;28;20038;-75
2023/04/03 09:43:53;;;;;;;1.90;0.88;;;;;;;;;;5147500;27;20398;-76
2023/04/03 09:46:40;;;;;;;3.20;0.98;;;;;;;;;;5103102;28;20027;-75
2023/04/03 09:49:07;;;;;;;2.88;1.13;;;;;;;;;;5105546;28;20019;-76
2023/04/03 09:51:33;;;;;;;3.92;1.30;;;;;;;;;;5105473;28;20483;-76
2023/04/03 09:53:59;;;;;;;1.88;1.25;;;;;;;;;;5112310;28;20022;-76
2023/04/03 09:56:27;;;;;;;4.97;1.10;;;;;;;;;;5120570;28;20118;-73
2023/04/03 09:59:07;;;;;;;7.35;2.20;;;;;;;;;;5092323;28;20043;-78
2023/04/03 10:01:33;;;;;;;5.38;3.53;;;;;;;;;;5099279;28;20030;-76
2023/04/03 10:04:07;;;;;;;1.95;0.82;;;;;;;;;;5092597;28;20024;-75
2023/04/03 10:06:40;;;;;;;3.08;1.23;;;;;;;;;;5102707;28;20507;-74
2023/04/03 10:09:08;;;;;;;3.28;0.82;;;;;;;;;;5110895;28;20031;-73
2023/04/03 10:11:34;;;;;;;4.22;0.93;;;;;;;;;;5098749;28;20060;-73
2023/04/03 10:14:02;;;;;;;2.28;1.08;;;;;;;;;;5120864;28;20058;-73
2023/04/03 10:16:47;;;;;;;2.70;0.85;;;;;;;;;;5092513;28;20028;-74
2023/04/03 10:19:26;;;;;;;2.72;1.10;;;;;;;;;;5094388;28;20043;-73
2023/04/03 10:22:00;;;;;;;2.10;0.68;;;;;;;;;;5094420;28;20482;-74
2023/04/03 10:24:48;;;;;;;1.58;0.63;;;;;;;;;;5090118;28;20035;-75
2023/04/03 10:27:20;;;;;;;1.35;0.70;;;;;;;;;;5090067;28;20035;-72
2023/04/03 10:29:46;;;;;;;;;;;;;;;;;;5085417;28;20058;-71
2023/04/03 10:32:18;;;;;;;3.53;0.90;;;;;;;;;;5121479;28;19907;-72
2023/04/03 10:34:44;;;;;;;4.15;0.90;;;;;;;;;;5123419;28;20028;-71
2023/04/03 10:37:15;;;;;;;2.08;0.80;;;;;;;;;;5123822;28;20128;-72
2023/04/03 10:39:49;;;;;;;2.38;0.77;;;;;;;;;;5125756;28;20023;-74
2023/04/03 10:42:15;;;;;;;1.52;0.90;;;;;;;;;;5108253;28;20079;-75
2023/04/03 10:44:48;;;;;;;2.03;0.80;;;;;;;;;;5103374;28;20476;-74
2023/04/03 10:47:37;;;;;;;1.77;0.68;;;;;;;;;;5098587;28;20043;-71
2023/04/03 10:50:22;;;;;;;5.10;2.65;;;;;;;;;;5089509;28;20043;-74
2023/04/03 10:52:51;;;;;;;4.45;2.65;;;;;;;;;;5093802;28;20122;-75
2023/04/03 10:55:28;;;;;;;2.10;0.80;;;;;;;;;;5111841;28;20484;-73
2023/04/03 10:57:57;;;;;;;2.78;0.60;;;;;;;;;;5091539;28;20372;-74
2023/04/03 11:00:31;;;;;;;1.85;0.80;;;;;;;;;;5085171;28;20479;-74
2023/04/03 11:02:57;;;;;;;1.65;0.80;;;;;;;;;;5091694;28;20089;-75
2023/04/03 11:05:29;;;;;;;1.60;0.70;;;;;;;;;;5078929;28;20032;-74
2023/04/03 11:07:55;;;;;;;;;;;;;;;;;;5093084;28;20472;-74
2023/04/03 11:10:26;;;;;;;2.22;0.57;;;;;;;;;;5093821;28;20006;-76
2023/04/03 11:12:55;;;;;;;0.90;0.50;;;;;;;;;;5093881;28;20116;-74
2023/04/03 11:15:23;;;;;;;2.50;0.60;;;;;;;;;;5077791;28;20034;-74
2023/04/03 11:17:53;;;;;;;2.80;1.00;;;;;;;;;;5112051;28;20046;-74
2023/04/03 11:20:27;;;;;;;1.60;0.43;;;;;;;;;;5110256;28;20058;-73
2023/04/03 11:22:58;;;;;;;1.30;0.55;;;;;;;;;;5100880;28;20472;-74
2023/04/03 11:25:26;;;;;;;1.33;0.60;;;;;;;;;;5104781;28;20031;-76
2023/04/03 11:27:55;;;;;;;1.58;0.55;;;;;;;;;;5073292;28;20027;-74
2023/04/03 11:30:25;;;;;;;1.05;0.50;;;;;;;;;;5102409;28;20024;-74
2023/04/03 11:33:01;;;;;;;2.25;0.68;;;;;;;;;;5092264;28;20028;-74
2023/04/03 11:35:28;;;;;;;1.30;0.70;;;;;;;;;;5078762;28;20031;-74
2023/04/03 11:37:54;;;;;;;1.85;0.50;;;;;;;;;;5090296;28;20031;-74
2023/04/03 11:40:20;;;;;;;0.43;0.40;;;;;;;;;;5072152;28;20154;-73
2023/04/03 11:42:48;;;;;;;3.63;0.80;;;;;;;;;;5070720;28;20048;-74
2023/04/03 11:45:26;;;;;;;0.70;0.40;;;;;;;;;;5103664;28;20028;-74
2023/04/03 11:47:59;;;;;;;3.28;1.65;;;;;;;;;;5105602;28;20028;-73
2023/04/03 11:50:31;;;;;;;3.28;0.75;;;;;;;;;;5083895;28;20035;-74
2023/04/03 11:53:00;;;;;;;2.63;0.82;;;;;;;;;;5075893;28;20038;-76
2023/04/03 11:55:32;;;;;;;2.78;0.93;;;;;;;;;;5104933;28;20039;-76
2023/04/03 11:57:59;;;;;;;1.83;0.77;;;;;;;;;;5084506;28;20490;-76
2023/04/03 12:00:44;;;;;;;2.78;0.60;;;;;;;;;;5075305;28;20041;-76
2023/04/03 12:03:29;;;;;;;2.30;0.70;;;;;;;;;;5090834;28;20052;-76
2023/04/03 12:05:58;;;;;;;1.80;1.02;;;;;;;;;;5084204;28;20020;-76
2023/04/03 12:08:33;;;;;;;1.80;0.57;;;;;;;;;;5073396;28;20380;-76
2023/04/03 12:11:09;;;;;;;2.13;0.80;;;;;;;;;;5078071;28;20024;-76
2023/04/03 12:13:36;;;;;;;3.40;0.73;;;;;;;;;;5090769;28;20037;-76
2023/04/03 12:16:03;;;;;;;0.85;0.45;;;;;;;;;;5094143;28;20036;-73
2023/04/03 12:18:48;;;;;;;2.78;0.70;;;;;;;;;;5081926;28;20080;-73
2023/04/03 12:21:18;;;;;;;0.90;0.55;;;;;;;;;;5078724;28;20426;-75
2023/04/03 12:24:03;;;;;;;2.75;0.80;;;;;;;;;;5090888;28;20498;-73
2023/04/03 12:26:35;;;;;;;1.08;0.40;;;;;;;;;;5074129;28;20027;-75
2023/04/03 12:29:10;;;;;;;2.92;0.55;;;;;;;;;;5074564;28;20025;-74
2023/04/03 12:31:42;;;;;;;4.53;0.70;;;;;;;;;;5078427;28;20028;-73
2023/04/03 12:34:34;;;;;;;1.95;0.70;;;;;;;;;;5088446;28;20049;-74
2023/04/03 12:37:04;;;;;;;3.60;0.90;;;;;;;;;;5049836;28;20037;-74
2023/04/03 12:39:36;;;;;;;2.33;0.90;;;;;;;;;;5086969;28;20022;-74
2023/04/03 12:42:21;;;;;;;1.20;0.70;;;;;;;;;;5072916;28;20044;-75
2023/04/03 12:44:56;;;;;;;3.65;1.40;;;;;;;;;;5081137;28;20032;-74
2023/04/03 12:47:26;;;;;;;0.80;0.40;;;;;;;;;;5089982;28;20024;-73
2023/04/03 12:49:53;;;;;;;2.85;1.02;;;;;;;;;;5078029;28;20027;-74
2023/04/03 12:52:23;;;;;;;3.03;0.60;;;;;;;;;;5088967;28;20023;-74
2023/04/03 12:54:51;;;;;;;1.77;0.90;;;;;;;;;;5090388;28;20028;-73
2023/04/03 12:57:18;;;;;;;1.30;0.70;;;;;;;;;;5072412;28;20024;-74
2023/04/03 12:59:46;;;;;;;1.35;0.60;;;;;;;;;;5101207;28;20028;-73
2023/04/03 13:02:18;;;;;;;1.48;0.80;;;;;;;;;;5071859;28;20042;-74
2023/04/03 13:04:45;;;;;;;2.17;0.80;;;;;;;;;;5079133;28;20059;-76
2023/04/03 13:07:22;;;;;;;4.10;0.73;;;;;;;;;;5087925;28;20024;-74
2023/04/03 13:09:59;;;;;;;5.97;1.00;;;;;;;;;;5092558;28;20490;-74
2023/04/03 13:12:26;;;;;;;2.80;0.75;;;;;;;;;;5081719;28;20028;-73
2023/04/03 13:14:53;;;;;;;2.25;1.13;;;;;;;;;;5069101;28;20419;-74
2023/04/03 13:17:21;;;;;;;1.38;0.80;;;;;;;;;;5081975;28;20032;-74
2023/04/03 13:19:47;;;;;;;5.25;0.90;;;;;;;;;;5101663;28;20049;-74
2023/04/03 13:22:16;;;;;;;7.40;2.17;;;;;;;;;;5109503;28;20035;-75
2023/04/03 13:24:43;;;;;;;14.85;8.07;;;;;;;;;;5075828;28;20036;-75
2023/04/03 13:27:11;;;;;;;3.25;1.40;;;;;;;;;;5067576;28;20103;-75
2023/04/03 13:29:38;;;;;;;3.97;1.90;;;;;;;;;;5077380;28;20040;-75
2023/04/03 13:32:05;;;;;;;1.98;0.80;;;;;;;;;;5077664;28;20414;-74
2023/04/03 13:34:40;;;;;;;1.05;0.70;;;;;;;;;;5080843;28;20380;-73
2023/04/03 13:37:07;;;;;;;5.72;1.13;;;;;;;;;;5074432;28;20032;-75
2023/04/03 13:39:40;;;;;;;2.30;0.88;;;;;;;;;;5073232;28;20054;-73
2023/04/03 13:42:21;;;;;;;2.38;0.77;;;;;;;;;;5097327;28;20028;-74
2023/04/03 13:44:47;;;;;;;4.47;0.90;;;;;;;;;;5096440;28;20019;-77
2023/04/03 13:47:18;;;;;;;2.28;0.80;;;;;;;;;;5071322;28;20031;-75
2023/04/03 13:49:45;;;;;;;2.78;0.70;;;;;;;;;;5091421;28;20267;-76
2023/04/03 13:52:22;;;;;;;1.73;0.90;;;;;;;;;;5085247;28;20027;-75
2023/04/03 13:54:48;;;;;;;3.70;1.02;;;;;;;;;;5091082;28;20104;-73
2023/04/03 13:57:15;;;;;;;2.50;0.95;;;;;;;;;;5078427;28;20037;-73
2023/04/03 13:59:42;;;;;;;2.25;1.00;;;;;;;;;;5078195;28;20396;-74
2023/04/03 14:02:09;;;;;;;2.75;1.05;;;;;;;;;;5090987;28;20460;-78
2023/04/03 14:04:44;;;;;;;5.13;2.30;;;;;;;;;;5082005;28;20028;-74
2023/04/03 14:07:11;;;;;;;2.15;1.50;;;;;;;;;;5078072;28;20024;-74
2023/04/03 14:09:37;;;;;;;2.17;1.08;;;;;;;;;;5079001;28;20073;-73
2023/04/03 14:12:09;;;;;;;2.50;0.73;;;;;;;;;;5072868;28;20028;-74
2023/04/03 14:14:38;;;;;;;2.38;0.80;;;;;;;;;;5080629;28;20031;-76
2023/04/03 14:17:10;;;;;;;3.33;0.90;;;;;;;;;;5097401;28;20150;-74
2023/04/03 14:19:37;;;;;;;2.65;0.93;;;;;;;;;;5094581;28;20035;-77
2023/04/03 14:22:17;;;;;;;3.08;0.93;;;;;;;;;;5067609;28;20459;-75
2023/04/03 14:24:44;;;;;;;3.58;1.10;;;;;;;;;;5097467;28;20126;-72
2023/04/03 14:27:16;;;;;;;2.42;0.95;;;;;;;;;;5084925;28;20027;-72
2023/04/03 14:29:42;;;;;;;;;;;;;;;;;;5108066;28;20056;-72
2023/04/03 14:32:11;;;;;;;2.58;0.98;;;;;;;;;;5103745;28;20328;-73
2023/04/03 14:34:37;;;;;;;3.15;1.17;;;;;;;;;;5088179;28;20023;-73
2023/04/03 14:37:05;;;;;;;3.03;1.27;;;;;;;;;;5087068;28;20024;-73
2023/04/03 14:39:31;;;;;;;2.80;0.90;;;;;;;;;;5086550;28;20035;-72
2023/04/03 14:41:57;;;;;;;2.88;0.95;;;;;;;;;;5090609;28;20483;-73
2023/04/03 14:44:23;;;;;;;2.92;1.17;;;;;;;;;;5092115;28;20059;-73
2023/04/03 14:46:50;;;;;;;1.60;0.90;;;;;;;;;;5090236;28;20027;-72
2023/04/03 14:49:18;;;;;;;2.85;1.00;;;;;;;;;;5076523;28;20069;-73
2023/04/03 14:51:45;;;;;;;2.42;0.75;;;;;;;;;;5079514;28;20097;-72
2023/04/03 14:54:15;;;;;;;2.55;0.90;;;;;;;;;;5073553;28;20028;-73
2023/04/03 14:56:44;;;;;;;2.63;0.93;;;;;;;;;;5096102;28;20024;-73
2023/04/03 14:59:11;;;;;;;2.05;1.10;;;;;;;;;;5091593;28;20032;-74
2023/04/03 15:01:37;;;;;;;3.80;0.98;;;;;;;;;;5093099;28;20032;-72
2023/04/03 15:04:13;;;;;;;5.88;0.70;;;;;;;;;;5096540;28;20032;-73
2023/04/03 15:06:40;;;;;;;2.03;1.05;;;;;;;;;;5091728;28;20024;-74
2023/04/03 15:09:19;;;;;;;1.40;0.80;;;;;;;;;;5083020;28;20032;-78
2023/04/03 15:11:45;;;;;;;2.90;0.88;;;;;;;;;;5094181;28;20047;-73